createdAt,value
2023-01-10T00:00:23.617Z,993.73
2023-01-10T00:00:55.998Z,993.73
2023-01-10T00:01:27.119Z,993.73
2023-01-10T00:02:00.088Z,993.73
2023-01-10T00:02:31.199Z,993.63
2023-01-10T00:03:03.988Z,993.63
2023-01-10T00:03:35.044Z,993.63
2023-01-10T00:04:07.994Z,993.63
2023-01-10T00:04:39.188Z,993.63
2023-01-10T00:05:11.810Z,993.63
2023-01-10T00:05:43.069Z,993.73
2023-01-10T00:06:15.886Z,993.73
2023-01-10T00:06:47.026Z,993.84
2023-01-10T00:07:19.635Z,993.84
2023-01-10T00:07:50.917Z,993.84
2023-01-10T00:08:23.848Z,993.84
2023-01-10T00:08:54.908Z,993.53
2023-01-10T00:09:27.683Z,993.84
2023-01-10T00:09:58.803Z,993.84
2023-01-10T00:10:31.658Z,993.94
2023-01-10T00:11:02.889Z,993.94
2023-01-10T00:11:35.752Z,993.84
2023-01-10T00:12:06.743Z,993.84
2023-01-10T00:12:39.652Z,993.84
2023-01-10T00:13:10.795Z,993.84
2023-01-10T00:13:43.540Z,993.84
2023-01-10T00:14:14.782Z,993.84
2023-01-10T00:14:47.519Z,993.94
2023-01-10T00:15:18.882Z,993.94
2023-01-10T00:15:51.499Z,993.94
2023-01-10T00:16:22.910Z,993.94
2023-01-10T00:16:55.430Z,993.94
2023-01-10T00:17:26.432Z,993.94
2023-01-10T00:17:59.228Z,993.94
2023-01-10T00:18:30.491Z,994.14
2023-01-10T00:19:03.412Z,994.14
2023-01-10T00:19:34.607Z,993.94
2023-01-10T00:20:07.124Z,993.94
2023-01-10T00:20:38.351Z,994.04
2023-01-10T00:21:11.312Z,994.04
2023-01-10T00:21:42.252Z,994.14
2023-01-10T00:22:15.089Z,994.14
2023-01-10T00:22:46.297Z,994.14
2023-01-10T00:23:19.258Z,994.14
2023-01-10T00:23:50.210Z,994.04
2023-01-10T00:24:23.121Z,994.04
2023-01-10T00:24:54.245Z,994.14
2023-01-10T00:25:27.186Z,994.14
2023-01-10T00:25:58.029Z,994.14
2023-01-10T00:26:30.977Z,994.04
2023-01-10T00:27:02.175Z,994.04
2023-01-10T00:27:35.295Z,994.21
2023-01-10T00:28:05.964Z,994.21
2023-01-10T00:28:39.027Z,994.21
2023-01-10T00:29:10.071Z,994.21
2023-01-10T00:29:43.057Z,994.14
2023-01-10T00:30:14.390Z,994.14
2023-01-10T00:30:46.856Z,994.31
2023-01-10T00:31:18.010Z,994.31
2023-01-10T00:31:50.932Z,994.21
2023-01-10T00:32:21.900Z,994.21
2023-01-10T00:32:54.743Z,994.31
2023-01-10T00:33:25.905Z,994.21
2023-01-10T00:33:58.884Z,994.21
2023-01-10T00:34:29.728Z,994.41
2023-01-10T00:35:02.669Z,994.41
2023-01-10T00:35:34.030Z,994.21
2023-01-10T00:36:06.546Z,994.21
2023-01-10T00:36:37.623Z,994.21
2023-01-10T00:37:10.593Z,994.21
2023-01-10T00:37:41.675Z,994.31
2023-01-10T00:38:14.660Z,994.31
2023-01-10T00:38:45.588Z,994.41
2023-01-10T00:39:18.483Z,994.41
2023-01-10T00:39:49.599Z,994.31
2023-01-10T00:40:22.503Z,994.31
2023-01-10T00:40:53.434Z,994.31
2023-01-10T00:41:26.488Z,994.31
2023-01-10T00:41:57.554Z,994.14
2023-01-10T00:42:30.520Z,994.31
2023-01-10T00:43:01.350Z,994.31
2023-01-10T00:43:34.573Z,994.21
2023-01-10T00:44:05.447Z,994.21
2023-01-10T00:44:38.180Z,994.31
2023-01-10T00:45:09.580Z,994.31
2023-01-10T00:45:43.166Z,994.41
2023-01-10T00:46:13.464Z,994.41
2023-01-10T00:46:47.277Z,994.41
2023-01-10T00:47:17.240Z,994.41
2023-01-10T00:47:50.167Z,994.31
2023-01-10T00:48:21.288Z,994.31
2023-01-10T00:48:54.036Z,994.51
2023-01-10T00:49:25.113Z,994.51
2023-01-10T00:49:58.047Z,994.51
2023-01-10T00:50:29.208Z,994.41
2023-01-10T00:51:01.915Z,994.41
2023-01-10T00:51:33.053Z,994.41
2023-01-10T00:52:06.000Z,994.41
2023-01-10T00:52:37.087Z,994.51
2023-01-10T00:53:09.928Z,994.51
2023-01-10T00:53:40.998Z,994.61
2023-01-10T00:54:14.035Z,994.61
2023-01-10T00:54:45.343Z,994.72
2023-01-10T00:55:17.756Z,994.72
2023-01-10T00:55:48.931Z,994.41
2023-01-10T00:56:21.848Z,994.41
2023-01-10T00:56:52.904Z,994.61
2023-01-10T00:57:25.699Z,994.61
2023-01-10T00:57:56.791Z,994.51
2023-01-10T00:58:29.867Z,994.51
2023-01-10T00:59:00.821Z,994.51
2023-01-10T00:59:33.600Z,994.51
2023-01-10T01:00:05.224Z,994.51
2023-01-10T01:00:37.661Z,994.82
2023-01-10T01:01:08.900Z,994.82
2023-01-10T01:01:41.634Z,994.72
2023-01-10T01:02:12.691Z,994.72
2023-01-10T01:02:45.589Z,994.72
2023-01-10T01:03:16.649Z,994.72
2023-01-10T01:03:49.570Z,994.82
2023-01-10T01:04:20.560Z,994.82
2023-01-10T01:04:53.467Z,994.72
2023-01-10T01:05:24.600Z,994.72
2023-01-10T01:05:57.290Z,994.51
2023-01-10T01:06:28.463Z,994.82
2023-01-10T01:07:01.449Z,994.82
2023-01-10T01:07:32.513Z,994.72
2023-01-10T01:08:05.230Z,994.72
2023-01-10T01:08:36.407Z,994.92
2023-01-10T01:09:09.382Z,994.92
2023-01-10T01:09:40.212Z,994.82
2023-01-10T01:10:13.181Z,994.82
2023-01-10T01:10:44.229Z,995.02
2023-01-10T01:11:17.156Z,995.02
2023-01-10T01:11:48.218Z,994.92
2023-01-10T01:12:21.088Z,994.92
2023-01-10T01:12:52.149Z,995.02
2023-01-10T01:13:25.238Z,995.02
2023-01-10T01:13:56.017Z,995.12
2023-01-10T01:14:28.944Z,995.22
2023-01-10T01:15:00.103Z,995.22
2023-01-10T01:15:33.212Z,995.02
2023-01-10T01:16:04.042Z,995.02
2023-01-10T01:16:37.021Z,995.02
2023-01-10T01:17:08.088Z,995.02
2023-01-10T01:17:40.933Z,995.22
2023-01-10T01:18:11.936Z,995.22
2023-01-10T01:18:44.921Z,995.12
2023-01-10T01:19:15.986Z,995.12
2023-01-10T01:19:48.928Z,995.12
2023-01-10T01:20:19.857Z,995.12
2023-01-10T01:20:52.751Z,995.02
2023-01-10T01:21:23.853Z,995.02
2023-01-10T01:21:56.705Z,995.12
2023-01-10T01:22:27.737Z,995.22
2023-01-10T01:23:00.762Z,995.22
2023-01-10T01:23:31.803Z,995.43
2023-01-10T01:24:04.821Z,995.43
2023-01-10T01:24:35.669Z,995.33
2023-01-10T01:25:08.579Z,995.33
2023-01-10T01:25:39.705Z,995.43
2023-01-10T01:26:12.289Z,995.43
2023-01-10T01:26:43.565Z,995.33
2023-01-10T01:27:16.480Z,995.33
2023-01-10T01:27:47.671Z,995.43
2023-01-10T01:28:20.592Z,995.43
2023-01-10T01:28:51.449Z,995.33
2023-01-10T01:29:26.248Z,995.33
2023-01-10T01:30:00.507Z,995.43
2023-01-10T01:30:28.337Z,995.43
2023-01-10T01:30:59.382Z,995.43
2023-01-10T01:31:32.343Z,995.63
2023-01-10T01:32:03.452Z,995.63
2023-01-10T01:32:36.664Z,995.43
2023-01-10T01:33:07.297Z,995.43
2023-01-10T01:33:40.368Z,995.53
2023-01-10T01:34:11.412Z,995.53
2023-01-10T01:34:44.061Z,995.63
2023-01-10T01:35:15.264Z,995.63
2023-01-10T01:35:48.219Z,995.53
2023-01-10T01:36:19.316Z,995.53
2023-01-10T01:36:52.221Z,995.63
2023-01-10T01:37:23.102Z,995.63
2023-01-10T01:37:56.083Z,995.53
2023-01-10T01:38:27.195Z,995.63
2023-01-10T01:38:59.993Z,995.63
2023-01-10T01:39:31.039Z,995.73
2023-01-10T01:40:04.026Z,995.73
2023-01-10T01:40:35.119Z,995.53
2023-01-10T01:41:07.812Z,995.53
2023-01-10T01:41:38.971Z,995.53
2023-01-10T01:42:11.805Z,995.53
2023-01-10T01:42:43.044Z,995.73
2023-01-10T01:43:15.892Z,995.73
2023-01-10T01:43:46.933Z,995.53
2023-01-10T01:44:19.838Z,995.53
2023-01-10T01:44:50.932Z,995.73
2023-01-10T01:45:23.844Z,995.73
2023-01-10T01:45:54.852Z,995.73
2023-01-10T01:46:27.760Z,995.83
2023-01-10T01:46:58.813Z,995.83
2023-01-10T01:47:31.594Z,995.73
2023-01-10T01:48:02.689Z,995.73
2023-01-10T01:48:35.623Z,995.73
2023-01-10T01:49:06.707Z,995.73
2023-01-10T01:49:39.472Z,995.73
2023-01-10T01:50:10.605Z,995.73
2023-01-10T01:50:43.523Z,995.63
2023-01-10T01:51:14.474Z,995.63
2023-01-10T01:51:47.423Z,995.73
2023-01-10T01:52:18.606Z,995.73
2023-01-10T01:52:51.424Z,995.73
2023-01-10T01:53:22.368Z,995.73
2023-01-10T01:53:55.296Z,995.73
2023-01-10T01:54:26.455Z,995.83
2023-01-10T01:54:59.313Z,995.83
2023-01-10T01:55:30.317Z,995.73
2023-01-10T01:56:03.266Z,995.73
2023-01-10T01:56:34.405Z,995.94
2023-01-10T01:57:07.592Z,995.94
2023-01-10T01:57:38.220Z,995.73
2023-01-10T01:58:11.272Z,995.73
2023-01-10T01:58:42.272Z,995.94
2023-01-10T01:59:15.478Z,995.94
2023-01-10T01:59:46.195Z,995.94
2023-01-10T02:00:19.408Z,995.94
2023-01-10T02:00:50.331Z,995.94
2023-01-10T02:01:23.260Z,995.94
2023-01-10T02:01:54.169Z,996.04
2023-01-10T02:02:27.033Z,996.04
2023-01-10T02:03:02.985Z,996.04
2023-01-10T02:03:31.092Z,996.14
2023-01-10T02:04:02.196Z,996.14
2023-01-10T02:04:35.645Z,996.04
2023-01-10T02:05:06.261Z,996.04
2023-01-10T02:05:38.823Z,996.04
2023-01-10T02:06:09.912Z,996.04
2023-01-10T02:06:42.872Z,995.94
2023-01-10T02:07:13.995Z,995.94
2023-01-10T02:07:47.254Z,996.04
2023-01-10T02:08:17.861Z,996.04
2023-01-10T02:08:50.748Z,996.04
2023-01-10T02:09:21.839Z,996.04
2023-01-10T02:09:54.614Z,996.24
2023-01-10T02:10:25.767Z,996.24
2023-01-10T02:10:58.558Z,996.31
2023-01-10T02:11:29.819Z,996.04
2023-01-10T02:12:02.595Z,996.04
2023-01-10T02:12:33.618Z,996.14
2023-01-10T02:13:06.800Z,996.14
2023-01-10T02:13:37.868Z,996.14
2023-01-10T02:14:10.413Z,996.14
2023-01-10T02:14:41.541Z,996.24
2023-01-10T02:15:14.583Z,996.24
2023-01-10T02:15:45.761Z,996.14
2023-01-10T02:16:18.823Z,996.14
2023-01-10T02:16:49.503Z,996.24
2023-01-10T02:17:22.449Z,996.24
2023-01-10T02:17:54.442Z,996.24
2023-01-10T02:18:26.360Z,996.24
2023-01-10T02:18:58.409Z,996.24
2023-01-10T02:19:30.490Z,996.24
2023-01-10T02:20:01.727Z,996.24
2023-01-10T02:20:34.166Z,996.41
2023-01-10T02:21:05.450Z,996.41
2023-01-10T02:21:38.249Z,996.24
2023-01-10T02:22:09.191Z,996.24
2023-01-10T02:22:42.251Z,996.31
2023-01-10T02:23:13.404Z,996.31
2023-01-10T02:23:46.147Z,996.41
2023-01-10T02:24:17.365Z,996.41
2023-01-10T02:24:50.193Z,996.24
2023-01-10T02:25:21.366Z,996.24
2023-01-10T02:25:54.167Z,996.31
2023-01-10T02:26:25.054Z,996.31
2023-01-10T02:26:57.829Z,996.41
2023-01-10T02:27:29.364Z,996.31
2023-01-10T02:28:02.213Z,996.31
2023-01-10T02:28:33.100Z,996.41
2023-01-10T02:29:05.979Z,996.41
2023-01-10T02:29:36.943Z,996.41
2023-01-10T02:30:10.377Z,996.41
2023-01-10T02:30:41.090Z,996.41
2023-01-10T02:31:13.817Z,996.41
2023-01-10T02:31:44.904Z,996.51
2023-01-10T02:32:18.759Z,996.51
2023-01-10T02:33:04.008Z,996.41
2023-01-10T02:33:21.758Z,996.41
2023-01-10T02:33:52.816Z,996.31
2023-01-10T02:34:25.843Z,996.31
2023-01-10T02:34:56.689Z,996.41
2023-01-10T02:35:29.605Z,996.41
2023-01-10T02:36:00.689Z,996.41
2023-01-10T02:36:33.559Z,996.51
2023-01-10T02:37:04.618Z,996.51
2023-01-10T02:37:37.518Z,996.41
2023-01-10T02:38:08.636Z,996.41
2023-01-10T02:38:41.672Z,996.51
2023-01-10T02:39:12.525Z,996.51
2023-01-10T02:39:45.521Z,996.61
2023-01-10T02:40:16.864Z,996.61
2023-01-10T02:40:49.510Z,996.61
2023-01-10T02:41:20.576Z,996.61
2023-01-10T02:41:53.405Z,996.61
2023-01-10T02:42:24.699Z,996.61
2023-01-10T02:42:57.289Z,996.61
2023-01-10T02:43:28.445Z,996.61
2023-01-10T02:44:02.254Z,996.61
2023-01-10T02:44:33.394Z,996.51
2023-01-10T02:45:05.851Z,996.51
2023-01-10T02:45:36.477Z,996.71
2023-01-10T02:46:09.601Z,996.71
2023-01-10T02:46:40.738Z,996.82
2023-01-10T02:47:13.207Z,996.82
2023-01-10T02:47:44.283Z,996.82
2023-01-10T02:48:17.304Z,996.82
2023-01-10T02:48:48.216Z,996.82
2023-01-10T02:49:20.996Z,996.82
2023-01-10T02:49:52.240Z,996.82
2023-01-10T02:50:24.925Z,996.82
2023-01-10T02:50:57.090Z,996.82
2023-01-10T02:51:28.822Z,996.92
2023-01-10T02:51:59.927Z,996.92
2023-01-10T02:52:32.989Z,996.92
2023-01-10T02:53:04.182Z,996.92
2023-01-10T02:53:36.817Z,996.92
2023-01-10T02:54:07.941Z,996.92
2023-01-10T02:54:40.978Z,996.92
2023-01-10T02:55:11.995Z,996.92
2023-01-10T02:55:45.705Z,996.92
2023-01-10T02:56:15.845Z,996.92
2023-01-10T02:56:49.645Z,996.92
2023-01-10T02:57:19.934Z,996.92
2023-01-10T02:57:52.808Z,996.92
2023-01-10T02:58:24.607Z,996.92
2023-01-10T02:58:56.762Z,997.12
2023-01-10T02:59:27.882Z,996.92
2023-01-10T03:00:01.358Z,996.92
2023-01-10T03:00:31.707Z,997.02
2023-01-10T03:01:04.831Z,997.02
2023-01-10T03:01:35.785Z,997.02
2023-01-10T03:02:08.618Z,997.02
2023-01-10T03:02:39.534Z,996.92
2023-01-10T03:03:12.568Z,996.92
2023-01-10T03:03:43.631Z,997.12
2023-01-10T03:04:16.466Z,997.12
2023-01-10T03:04:47.661Z,997.12
2023-01-10T03:05:21.217Z,997.12
2023-01-10T03:05:51.472Z,996.92
2023-01-10T03:06:24.573Z,996.92
2023-01-10T03:06:55.363Z,997.12
2023-01-10T03:07:28.315Z,997.22
2023-01-10T03:07:59.506Z,997.22
2023-01-10T03:08:32.345Z,997.02
2023-01-10T03:09:03.232Z,997.02
2023-01-10T03:09:36.317Z,997.22
2023-01-10T03:10:07.846Z,997.22
2023-01-10T03:10:40.193Z,997.22
2023-01-10T03:11:11.229Z,997.22
2023-01-10T03:11:44.220Z,997.22
2023-01-10T03:12:15.147Z,997.22
2023-01-10T03:12:48.008Z,997.32
2023-01-10T03:13:19.176Z,997.32
2023-01-10T03:13:52.253Z,997.22
2023-01-10T03:14:23.402Z,997.22
2023-01-10T03:14:55.949Z,997.22
2023-01-10T03:15:27.174Z,997.32
2023-01-10T03:16:00.083Z,997.32
2023-01-10T03:16:30.868Z,997.12
2023-01-10T03:17:04.952Z,997.12
2023-01-10T03:17:34.986Z,997.22
2023-01-10T03:18:07.843Z,997.22
2023-01-10T03:18:38.825Z,997.22
2023-01-10T03:19:11.884Z,997.22
2023-01-10T03:19:42.901Z,997.32
2023-01-10T03:20:15.899Z,997.32
2023-01-10T03:20:46.817Z,997.43
2023-01-10T03:21:19.848Z,997.43
2023-01-10T03:21:50.837Z,997.32
2023-01-10T03:22:23.721Z,997.32
2023-01-10T03:22:54.620Z,997.32
2023-01-10T03:23:27.627Z,997.43
2023-01-10T03:23:58.720Z,997.43
2023-01-10T03:24:31.648Z,997.43
2023-01-10T03:25:02.580Z,997.43
2023-01-10T03:25:35.544Z,997.43
2023-01-10T03:26:06.738Z,997.43
2023-01-10T03:26:39.715Z,997.32
2023-01-10T03:27:10.467Z,997.32
2023-01-10T03:27:43.421Z,997.53
2023-01-10T03:28:14.525Z,997.53
2023-01-10T03:28:47.442Z,997.43
2023-01-10T03:29:18.445Z,997.43
2023-01-10T03:29:51.262Z,997.63
2023-01-10T03:30:22.640Z,997.63
2023-01-10T03:30:55.327Z,997.43
2023-01-10T03:31:26.471Z,997.53
2023-01-10T03:31:59.266Z,997.53
2023-01-10T03:32:30.351Z,997.53
2023-01-10T03:33:03.409Z,997.53
2023-01-10T03:33:34.198Z,997.53
2023-01-10T03:34:07.010Z,997.53
2023-01-10T03:34:38.271Z,997.53
2023-01-10T03:35:11.253Z,997.53
2023-01-10T03:35:42.147Z,997.53
2023-01-10T03:36:15.186Z,997.53
2023-01-10T03:36:46.174Z,997.63
2023-01-10T03:37:19.153Z,997.63
2023-01-10T03:37:50.035Z,997.63
2023-01-10T03:38:23.069Z,997.63
2023-01-10T03:38:54.100Z,997.53
2023-01-10T03:39:27.015Z,997.63
2023-01-10T03:39:57.979Z,997.63
2023-01-10T03:40:30.903Z,997.63
2023-01-10T03:41:01.964Z,997.63
2023-01-10T03:41:35.353Z,997.73
2023-01-10T03:42:05.869Z,997.73
2023-01-10T03:42:38.755Z,997.63
2023-01-10T03:43:09.936Z,997.63
2023-01-10T03:43:42.760Z,997.73
2023-01-10T03:44:13.803Z,997.73
2023-01-10T03:44:46.766Z,997.63
2023-01-10T03:45:17.992Z,997.63
2023-01-10T03:45:50.758Z,997.73
2023-01-10T03:46:21.710Z,997.73
2023-01-10T03:46:54.730Z,997.73
2023-01-10T03:47:25.745Z,997.73
2023-01-10T03:47:58.439Z,997.63
2023-01-10T03:48:29.619Z,997.83
2023-01-10T03:49:02.543Z,997.83
2023-01-10T03:49:33.657Z,997.83
2023-01-10T03:50:06.358Z,997.83
2023-01-10T03:50:37.524Z,997.83
2023-01-10T03:51:10.355Z,997.83
2023-01-10T03:51:41.664Z,997.83
2023-01-10T03:52:14.382Z,997.83
2023-01-10T03:52:45.426Z,997.73
2023-01-10T03:53:18.403Z,997.73
2023-01-10T03:53:49.535Z,997.73
2023-01-10T03:54:22.118Z,997.73
2023-01-10T03:54:53.358Z,997.93
2023-01-10T03:55:26.369Z,997.93
2023-01-10T03:55:57.467Z,997.93
2023-01-10T03:56:30.164Z,997.93
2023-01-10T03:57:02.732Z,997.93
2023-01-10T03:57:34.338Z,997.93
2023-01-10T03:58:05.425Z,997.93
2023-01-10T03:58:38.088Z,998.03
2023-01-10T03:59:09.209Z,998.03
2023-01-10T03:59:42.112Z,997.93
2023-01-10T04:00:13.849Z,997.93
2023-01-10T04:00:45.946Z,998.14
2023-01-10T04:01:17.221Z,998.14
2023-01-10T04:01:50.193Z,998.14
2023-01-10T04:02:20.951Z,998.14
2023-01-10T04:02:53.880Z,998.03
2023-01-10T04:03:25.024Z,998.03
2023-01-10T04:03:58.088Z,998.03
2023-01-10T04:04:28.873Z,998.03
2023-01-10T04:05:01.902Z,998.03
2023-01-10T04:05:32.936Z,998.03
2023-01-10T04:06:06.089Z,998.03
2023-01-10T04:06:37.220Z,998.03
2023-01-10T04:07:09.728Z,998.03
2023-01-10T04:07:40.915Z,998.24
2023-01-10T04:08:13.986Z,998.24
2023-01-10T04:08:44.726Z,997.93
2023-01-10T04:09:17.663Z,997.93
2023-01-10T04:09:48.797Z,998.14
2023-01-10T04:10:23.398Z,998.14
2023-01-10T04:10:52.609Z,998.24
2023-01-10T04:11:25.551Z,998.24
2023-01-10T04:11:56.688Z,998.24
2023-01-10T04:12:29.615Z,998.14
2023-01-10T04:13:00.620Z,998.14
2023-01-10T04:13:33.684Z,998.34
2023-01-10T04:14:04.611Z,998.34
2023-01-10T04:14:37.543Z,998.34
2023-01-10T04:15:08.739Z,998.34
2023-01-10T04:15:41.409Z,998.03
2023-01-10T04:16:12.610Z,998.03
2023-01-10T04:16:45.435Z,998.14
2023-01-10T04:17:16.325Z,998.14
2023-01-10T04:17:49.273Z,998.24
2023-01-10T04:18:20.431Z,998.24
2023-01-10T04:18:53.335Z,998.44
2023-01-10T04:19:24.341Z,998.44
2023-01-10T04:19:57.195Z,998.51
2023-01-10T04:20:28.340Z,998.34
2023-01-10T04:21:01.114Z,998.34
2023-01-10T04:21:32.238Z,998.51
2023-01-10T04:22:05.143Z,998.51
2023-01-10T04:22:36.258Z,998.34
2023-01-10T04:23:09.288Z,998.34
2023-01-10T04:23:40.162Z,998.51
2023-01-10T04:24:13.007Z,998.51
2023-01-10T04:24:44.211Z,998.34
2023-01-10T04:25:17.085Z,998.34
2023-01-10T04:25:48.042Z,998.44
2023-01-10T04:26:20.978Z,998.44
2023-01-10T04:26:52.073Z,998.51
2023-01-10T04:27:24.886Z,998.51
2023-01-10T04:27:55.952Z,998.51
2023-01-10T04:28:28.865Z,998.61
2023-01-10T04:28:59.929Z,998.61
2023-01-10T04:29:32.929Z,998.51
2023-01-10T04:30:04.015Z,998.51
2023-01-10T04:30:36.766Z,998.61
2023-01-10T04:31:07.961Z,998.61
2023-01-10T04:31:40.901Z,998.51
2023-01-10T04:32:11.810Z,998.51
2023-01-10T04:32:44.742Z,998.71
2023-01-10T04:33:16.074Z,998.71
2023-01-10T04:33:48.577Z,998.51
2023-01-10T04:34:19.673Z,998.51
2023-01-10T04:34:52.793Z,998.71
2023-01-10T04:35:23.678Z,998.71
2023-01-10T04:36:01.836Z,998.71
2023-01-10T04:36:27.599Z,998.81
2023-01-10T04:36:59.593Z,998.81
2023-01-10T04:37:31.629Z,998.81
2023-01-10T04:38:03.420Z,998.81
2023-01-10T04:38:35.769Z,998.81
2023-01-10T04:39:07.529Z,998.81
2023-01-10T04:39:39.615Z,998.81
2023-01-10T04:40:11.466Z,998.81
2023-01-10T04:40:43.367Z,998.81
2023-01-10T04:41:15.404Z,998.81
2023-01-10T04:41:47.453Z,998.71
2023-01-10T04:42:19.310Z,998.71
2023-01-10T04:42:51.360Z,998.81
2023-01-10T04:43:23.372Z,998.81
2023-01-10T04:43:55.377Z,998.81
2023-01-10T04:44:27.165Z,998.81
2023-01-10T04:44:59.164Z,998.81
2023-01-10T04:45:31.395Z,998.81
2023-01-10T04:46:03.384Z,998.81
2023-01-10T04:46:35.103Z,998.92
2023-01-10T04:47:07.152Z,998.92
2023-01-10T04:47:39.176Z,999.02
2023-01-10T04:48:11.240Z,999.02
2023-01-10T04:48:43.036Z,998.92
2023-01-10T04:49:15.115Z,998.92
2023-01-10T04:49:47.411Z,998.92
2023-01-10T04:50:19.132Z,998.92
2023-01-10T04:50:50.961Z,999.12
2023-01-10T04:51:23.011Z,999.12
2023-01-10T04:51:55.042Z,999.02
2023-01-10T04:52:27.024Z,999.12
2023-01-10T04:52:58.860Z,999.12
2023-01-10T04:53:30.878Z,999.02
2023-01-10T04:54:02.935Z,999.02
2023-01-10T04:54:34.967Z,999.02
2023-01-10T04:55:06.770Z,999.02
2023-01-10T04:55:38.851Z,998.92
2023-01-10T04:56:10.874Z,998.92
2023-01-10T04:56:42.666Z,999.12
2023-01-10T04:57:14.671Z,999.12
2023-01-10T04:57:46.754Z,998.92
2023-01-10T04:58:18.763Z,998.92
2023-01-10T04:58:53.071Z,999.02
2023-01-10T04:59:22.641Z,999.02
2023-01-10T04:59:54.685Z,999.02
2023-01-10T05:00:26.957Z,999.12
2023-01-10T05:00:58.581Z,999.12
2023-01-10T05:01:30.527Z,999.02
2023-01-10T05:02:02.686Z,999.02
2023-01-10T05:02:34.843Z,999.12
2023-01-10T05:03:06.508Z,999.12
2023-01-10T05:03:38.492Z,999.22
2023-01-10T05:04:11.570Z,999.22
2023-01-10T05:04:42.529Z,999.22
2023-01-10T05:05:14.289Z,999.22
2023-01-10T05:05:46.378Z,999.22
2023-01-10T05:06:18.410Z,999.22
2023-01-10T05:06:50.437Z,999.32
2023-01-10T05:07:22.238Z,999.32
2023-01-10T05:07:54.287Z,999.12
2023-01-10T05:08:26.305Z,999.32
2023-01-10T05:08:58.335Z,999.32
2023-01-10T05:09:30.177Z,999.42
2023-01-10T05:10:02.212Z,999.42
2023-01-10T05:10:34.814Z,999.32
2023-01-10T05:11:06.323Z,999.32
2023-01-10T05:11:38.101Z,999.42
2023-01-10T05:12:10.139Z,999.42
2023-01-10T05:12:42.167Z,999.32
2023-01-10T05:13:14.147Z,999.32
2023-01-10T05:13:47.925Z,999.32
2023-01-10T05:14:17.961Z,999.32
2023-01-10T05:14:50.024Z,999.42
2023-01-10T05:15:22.236Z,999.42
2023-01-10T05:15:53.911Z,999.42
2023-01-10T05:16:26.008Z,999.42
2023-01-10T05:16:57.968Z,999.42
2023-01-10T05:17:29.980Z,999.42
2023-01-10T05:18:01.769Z,999.42
2023-01-10T05:18:34.248Z,999.32
2023-01-10T05:19:05.911Z,999.32
2023-01-10T05:19:37.897Z,999.52
2023-01-10T05:20:09.742Z,999.52
2023-01-10T05:20:41.787Z,999.42
2023-01-10T05:21:13.740Z,999.42
2023-01-10T05:21:45.841Z,999.52
2023-01-10T05:22:17.581Z,999.52
2023-01-10T05:22:49.680Z,999.42
2023-01-10T05:23:21.924Z,999.42
2023-01-10T05:23:53.754Z,999.52
2023-01-10T05:24:25.579Z,999.52
2023-01-10T05:24:57.589Z,999.42
2023-01-10T05:25:29.614Z,999.52
2023-01-10T05:26:01.661Z,999.52
2023-01-10T05:26:34.293Z,999.52
2023-01-10T05:27:05.496Z,999.52
2023-01-10T05:27:37.558Z,999.52
2023-01-10T05:28:09.573Z,999.52
2023-01-10T05:28:41.394Z,999.52
2023-01-10T05:29:13.401Z,999.52
2023-01-10T05:29:45.585Z,999.73
2023-01-10T05:30:17.672Z,999.73
2023-01-10T05:30:49.330Z,999.63
2023-01-10T05:31:21.397Z,999.63
2023-01-10T05:31:53.446Z,999.63
2023-01-10T05:32:25.154Z,999.63
2023-01-10T05:32:57.211Z,999.73
2023-01-10T05:33:29.231Z,999.52
2023-01-10T05:34:01.226Z,999.52
2023-01-10T05:34:33.111Z,999.52
2023-01-10T05:35:05.168Z,999.52
2023-01-10T05:35:37.174Z,999.63
2023-01-10T05:36:09.202Z,999.63
2023-01-10T05:36:41.044Z,999.63
2023-01-10T05:37:13.056Z,999.63
2023-01-10T05:37:45.085Z,999.73
2023-01-10T05:38:17.081Z,999.73
2023-01-10T05:38:48.932Z,999.52
2023-01-10T05:39:20.905Z,999.52
2023-01-10T05:39:53.002Z,999.42
2023-01-10T05:40:25.042Z,999.42
2023-01-10T05:40:58.859Z,999.73
2023-01-10T05:41:28.854Z,999.73
2023-01-10T05:42:00.988Z,999.73
2023-01-10T05:42:33.249Z,999.63
2023-01-10T05:43:04.729Z,999.63
2023-01-10T05:43:36.797Z,999.73
2023-01-10T05:44:08.847Z,999.73
2023-01-10T05:44:40.851Z,999.73
2023-01-10T05:45:12.836Z,999.73
2023-01-10T05:45:44.758Z,999.73
2023-01-10T05:46:16.755Z,999.73
2023-01-10T05:46:48.720Z,999.63
2023-01-10T05:47:20.569Z,999.63
2023-01-10T05:47:52.612Z,999.73
2023-01-10T05:48:24.584Z,999.73
2023-01-10T05:48:56.634Z,999.73
2023-01-10T05:49:28.488Z,999.73
2023-01-10T05:50:00.541Z,999.73
2023-01-10T05:50:32.517Z,999.63
2023-01-10T05:51:04.560Z,999.63
2023-01-10T05:51:36.453Z,999.93
2023-01-10T05:52:08.473Z,999.93
2023-01-10T05:52:40.480Z,999.73
2023-01-10T05:53:12.498Z,999.73
2023-01-10T05:53:44.311Z,999.73
2023-01-10T05:54:16.366Z,999.73
2023-01-10T05:54:48.362Z,1000.03
2023-01-10T05:55:20.366Z,1000.03
2023-01-10T05:55:52.238Z,999.73
2023-01-10T05:56:24.206Z,999.73
2023-01-10T05:56:56.257Z,999.83
2023-01-10T05:57:28.305Z,999.83
2023-01-10T05:58:00.123Z,999.83
2023-01-10T05:58:32.120Z,999.83
2023-01-10T05:59:09.826Z,999.83
2023-01-10T05:59:36.058Z,999.93
2023-01-10T06:00:08.735Z,999.93
2023-01-10T06:00:40.419Z,999.93
2023-01-10T06:01:12.178Z,999.93
2023-01-10T06:01:43.963Z,999.93
2023-01-10T06:02:16.065Z,999.93
2023-01-10T06:02:48.185Z,999.93
2023-01-10T06:03:20.104Z,999.93
2023-01-10T06:03:51.871Z,1000.03
2023-01-10T06:04:23.909Z,1000.03
2023-01-10T06:04:55.956Z,1000.13
2023-01-10T06:05:27.955Z,999.93
2023-01-10T06:06:04.791Z,999.93
2023-01-10T06:06:31.758Z,1000.24
2023-01-10T06:07:03.805Z,1000.24
2023-01-10T06:07:35.953Z,1000.13
2023-01-10T06:08:07.722Z,1000.13
2023-01-10T06:08:39.668Z,1000.34
2023-01-10T06:09:11.712Z,1000.34
2023-01-10T06:09:43.734Z,1000.24
2023-01-10T06:10:15.632Z,1000.24
2023-01-10T06:10:47.589Z,1000.34
2023-01-10T06:11:19.695Z,1000.34
2023-01-10T06:11:51.723Z,1000.34
2023-01-10T06:12:23.543Z,1000.34
2023-01-10T06:12:55.560Z,1000.24
2023-01-10T06:13:27.582Z,1000.34
2023-01-10T06:13:59.601Z,1000.34
2023-01-10T06:14:31.424Z,1000.24
2023-01-10T06:15:03.610Z,1000.24
2023-01-10T06:15:35.499Z,1000.44
2023-01-10T06:16:07.638Z,1000.44
2023-01-10T06:16:39.328Z,1000.34
2023-01-10T06:17:11.397Z,1000.34
2023-01-10T06:17:43.476Z,1000.44
2023-01-10T06:18:15.465Z,1000.44
2023-01-10T06:18:47.250Z,1000.24
2023-01-10T06:19:19.261Z,1000.24
2023-01-10T06:19:51.304Z,1000.34
2023-01-10T06:20:23.696Z,1000.34
2023-01-10T06:20:55.150Z,1000.34
2023-01-10T06:21:27.218Z,1000.54
2023-01-10T06:21:59.267Z,1000.54
2023-01-10T06:22:31.262Z,1000.44
2023-01-10T06:23:03.101Z,1000.44
2023-01-10T06:23:35.161Z,1000.34
2023-01-10T06:24:07.197Z,1000.34
2023-01-10T06:24:39.188Z,1000.54
2023-01-10T06:25:10.977Z,1000.54
2023-01-10T06:25:43.035Z,1000.54
2023-01-10T06:26:14.982Z,1000.54
2023-01-10T06:26:47.041Z,1000.54
2023-01-10T06:27:18.936Z,1000.54
2023-01-10T06:27:50.901Z,1000.61
2023-01-10T06:28:22.972Z,1000.61
2023-01-10T06:28:54.979Z,1000.54
2023-01-10T06:29:26.880Z,1000.71
2023-01-10T06:29:58.903Z,1000.71
2023-01-10T06:30:31.035Z,1000.61
2023-01-10T06:31:02.788Z,1000.61
2023-01-10T06:31:34.896Z,1000.61
2023-01-10T06:32:06.953Z,1000.61
2023-01-10T06:32:38.873Z,1000.61
2023-01-10T06:33:10.668Z,1000.61
2023-01-10T06:33:42.656Z,1000.81
2023-01-10T06:34:14.714Z,1000.81
2023-01-10T06:34:46.691Z,1000.71
2023-01-10T06:35:18.529Z,1000.71
2023-01-10T06:35:50.601Z,1000.71
2023-01-10T06:36:22.604Z,1000.71
2023-01-10T06:36:54.607Z,1000.81
2023-01-10T06:37:26.506Z,1000.71
2023-01-10T06:37:58.512Z,1000.71